Time;durP1;ratioP1;P1;durP2;ratioP2;P2;SDS_P1;SDS_P2;PMS_P1;PMS_P2;Temp;Humidity;BMP_temperature;BMP_pressure;BME280_temperature;BME280_humidity;BME280_pressure;Samples;Min_cycle;Max_cycle;Signal;HPM_P1;HPM_P2
2023/03/07 00:01:15;;;;;;;;;;;;;;;;;;5090919;28;20308;-60
2023/03/07 00:03:40;;;;;;;;;;;4.50;99.90;;;;;;5094238;28;20377;-61
2023/03/07 00:06:06;;;;;;;;;;;;;;;;;;5095794;28;19971;-62
2023/03/07 00:08:32;;;;;;;;;;;3.80;99.90;;;;;;5091754;28;19920;-62
2023/03/07 00:10:58;;;;;;;;;;;;;;;;;;5092015;28;19971;-61
2023/03/07 00:13:24;;;;;;;;;;;;;;;;;;5087323;28;19927;-62
2023/03/07 00:15:50;;;;;;;;;;;;;;;;;;5096196;28;19920;-61
2023/03/07 00:18:16;;;;;;;;;;;;;;;;;;5084688;28;20347;-60
2023/03/07 00:20:41;;;;;;;;;;;3.90;1.00;;;;;;5094621;28;19920;-59
2023/03/07 00:23:07;;;;;;;;;;;3.70;13.70;;;;;;5081945;28;19920;-61
2023/03/07 00:25:33;;;;;;;;;;;;;;;;;;5092048;28;19920;-62
2023/03/07 00:28:01;;;;;;;;;;;;;;;;;;5091495;28;20124;-62
2023/03/07 00:30:26;;;;;;;;;;;;;;;;;;5088777;28;19967;-59
2023/03/07 00:32:53;;;;;;;;;;;4.60;1.00;;;;;;5074155;28;19920;-62
2023/03/07 00:35:19;;;;;;;;;;;;;;;;;;5081734;28;20101;-62
2023/03/07 00:37:44;;;;;;;;;;;3.80;99.90;;;;;;5091167;28;20010;-62
2023/03/07 00:40:10;;;;;;;;;;;3.80;99.90;;;;;;5092210;28;20106;-61
2023/03/07 00:42:36;;;;;;;;;;;4.20;99.90;;;;;;5087847;28;19924;-59
2023/03/07 00:45:02;;;;;;;;;;;;;;;;;;5080286;28;20007;-61
2023/03/07 00:47:28;;;;;;;;;;;3.90;99.90;;;;;;5091218;28;19928;-61
2023/03/07 00:49:54;;;;;;;;;;;;;;;;;;5067052;28;20390;-61
2023/03/07 00:52:22;;;;;;;;;;;4.40;99.90;;;;;;5077126;28;19924;-61
2023/03/07 00:54:48;;;;;;;;;;;;;;;;;;5062306;28;19927;-62
2023/03/07 00:57:14;;;;;;;;;;;;;;;;;;5090152;28;20021;-62
2023/03/07 00:59:40;;;;;;;;;;;;;;;;;;5092367;28;19927;-62
2023/03/07 01:02:06;;;;;;;;;;;;;;;;;;5091593;28;19931;-63
2023/03/07 01:04:32;;;;;;;;;;;;;;;;;;5090962;28;19972;-62
2023/03/07 01:06:57;;;;;;;;;;;3.90;99.90;;;;;;5057144;28;19920;-62
2023/03/07 01:09:23;;;;;;;;;;;;;;;;;;5088621;28;19928;-62
2023/03/07 01:11:49;;;;;;;;;;;;;;;;;;5080048;28;19924;-62
2023/03/07 01:14:15;;;;;;;;;;;;;;;;;;5091486;28;19943;-62
2023/03/07 01:16:41;;;;;;;;;;;;;;;;;;5085191;28;20305;-62
2023/03/07 01:19:07;;;;;;;;;;;;;;;;;;5078836;28;19921;-63
2023/03/07 01:21:33;;;;;;;;;;;;;;;;;;5073468;28;19920;-62
2023/03/07 01:23:59;;;;;;;;;;;3.00;7.20;;;;;;5087245;28;19926;-62
2023/03/07 01:26:24;;;;;;;;;;;;;;;;;;5068460;28;20369;-62
2023/03/07 01:28:50;;;;;;;;;;;;;;;;;;5085587;28;19924;-63
2023/03/07 01:31:16;;;;;;;;;;;;;;;;;;5064191;28;19973;-62
2023/03/07 01:33:42;;;;;;;;;;;;;;;;;;5091735;28;19939;-63
2023/03/07 01:36:08;;;;;;;;;;;;;;;;;;5079437;28;19982;-62
2023/03/07 01:38:34;;;;;;;;;;;3.20;1.00;;;;;;5069035;28;19920;-61
2023/03/07 01:41:00;;;;;;;;;;;;;;;;;;5082378;28;19943;-63
2023/03/07 01:43:26;;;;;;;;;;;3.80;1.00;;;;;;5090690;28;20296;-61
2023/03/07 01:46:10;;;;;;;;;;;3.70;1.00;;;;;;5073044;28;19920;-62
2023/03/07 01:48:36;;;;;;;;;;;4.00;99.90;;;;;;5082378;28;19924;-62
2023/03/07 01:51:02;;;;;;;;;;;3.90;99.90;;;;;;5056675;28;19931;-61
2023/03/07 01:53:28;;;;;;;;;;;;;;;;;;5077556;28;19928;-62
2023/03/07 01:55:54;;;;;;;;;;;4.00;99.90;;;;;;5091060;28;19927;-62
2023/03/07 01:58:20;;;;;;;;;;;;;;;;;;5088558;28;19920;-62
2023/03/07 02:00:46;;;;;;;;;;;;;;;;;;5078330;28;20451;-60
2023/03/07 02:03:12;;;;;;;;;;;;;;;;;;5063302;28;20627;-61
2023/03/07 02:05:38;;;;;;;;;;;;;;;;;;5090910;28;19963;-62
2023/03/07 02:08:06;;;;;;;;;;;3.60;99.90;;;;;;5090734;28;19920;-61
2023/03/07 02:10:32;;;;;;;;;;;3.90;99.90;;;;;;5087042;28;19925;-61
2023/03/07 02:12:58;;;;;;;;;;;;;;;;;;5089643;28;20299;-60
2023/03/07 02:15:24;;;;;;;;;;;;;;;;;;5090413;28;19998;-59
2023/03/07 02:17:50;;;;;;;;;;;3.80;99.90;;;;;;5090781;28;20377;-60
2023/03/07 02:20:29;;;;;;;;;;;3.30;99.90;;;;;;5088844;28;20375;-60
2023/03/07 02:22:55;;;;;;;;;;;;;;;;;;5086866;28;19920;-61
2023/03/07 02:25:21;;;;;;;;;;;;;;;;;;5090087;28;19920;-62
2023/03/07 02:27:47;;;;;;;;;;;3.70;99.90;;;;;;5089946;28;20297;-62
2023/03/07 02:30:13;;;;;;;;;;;;;;;;;;5054891;28;19942;-62
2023/03/07 02:32:39;;;;;;;;;;;3.60;99.90;;;;;;5072465;28;19920;-62
2023/03/07 02:35:15;;;;;;;;;;;3.20;99.90;;;;;;5090353;28;19920;-62
2023/03/07 02:37:41;;;;;;;;;;;;;;;;;;5082597;28;19927;-62
2023/03/07 02:40:08;;;;;;;;;;;3.70;99.90;;;;;;5090172;28;19924;-62
2023/03/07 02:42:34;;;;;;;;;;;;;;;;;;5089865;28;19920;-62
2023/03/07 02:45:00;;;;;;;;;;;;;;;;;;5090360;28;19942;-62
2023/03/07 02:47:26;;;;;;;;;;;;;;;;;;5081180;28;19959;-63
2023/03/07 02:49:52;;;;;;;;;;;;;;;;;;5081449;28;20047;-62
2023/03/07 02:52:18;;;;;;;;;;;;;;;;;;5088427;28;20358;-62
2023/03/07 02:54:44;;;;;;;;;;;;;;;;;;5090484;28;20316;-61
2023/03/07 02:57:10;;;;;;;;;;;;;;;;;;5087399;28;20301;-62
2023/03/07 02:59:36;;;;;;;;;;;;;;;;;;5089771;28;19928;-61
2023/03/07 03:02:02;;;;;;;;;;;;;;;;;;5090142;28;19981;-58
2023/03/07 03:04:28;;;;;;;;;;;;;;;;;;5083181;28;20266;-59
2023/03/07 03:06:54;;;;;;;;;;;;;;;;;;5086082;28;19953;-59
2023/03/07 03:09:19;;;;;;;;;;;;;;;;;;5089007;28;19924;-58
2023/03/07 03:11:45;;;;;;;;;;;3.60;99.90;;;;;;5085458;28;19977;-57
2023/03/07 03:14:11;;;;;;;;;;;;;;;;;;5086212;28;19928;-59
2023/03/07 03:16:38;;;;;;;;;;;3.40;99.90;;;;;;5081082;28;19973;-60
2023/03/07 03:19:04;;;;;;;;;;;;;;;;;;5089655;28;19927;-58
2023/03/07 03:21:30;;;;;;;;;;;3.70;99.90;;;;;;5089077;28;20292;-57
2023/03/07 03:23:55;;;;;;;;;;;3.10;99.90;;;;;;5093234;28;19920;-60
2023/03/07 03:26:21;;;;;;;;;;;2.90;99.90;;;;;;5086525;28;19927;-60
2023/03/07 03:28:47;;;;;;;;;;;;;;;;;;5089032;28;19920;-60
2023/03/07 03:31:14;;;;;;;;;;;;;;;;;;5083705;28;19925;-55
2023/03/07 03:33:39;;;;;;;;;;;;;;;;;;5081309;28;19920;-60
2023/03/07 03:36:06;;;;;;;;;;;;;;;;;;5089635;28;19919;-60
2023/03/07 03:38:32;;;;;;;;;;;;;;;;;;5089160;28;19984;-58
2023/03/07 03:40:58;;;;;;;;;;;;;;;;;;5089558;28;19924;-60
2023/03/07 03:43:24;;;;;;;;;;;;;;;;;;5070966;28;19920;-61
2023/03/07 03:45:50;;;;;;;;;;;;;;;;;;5089774;28;19954;-58
2023/03/07 03:48:15;;;;;;;;;;;3.70;99.90;;;;;;5088455;28;19920;-60
2023/03/07 03:50:41;;;;;;;;;;;4.00;99.90;;;;;;5081159;28;19924;-61
2023/03/07 03:53:07;;;;;;;;;;;;;;;;;;5071522;28;20011;-61
2023/03/07 03:55:33;;;;;;;;;;;;;;;;;;5076604;28;20007;-61
2023/03/07 03:57:59;;;;;;;;;;;;;;;;;;5070942;28;20014;-60
2023/03/07 04:00:24;;;;;;;;;;;;;;;;;;5069544;28;19920;-59
2023/03/07 04:02:50;;;;;;;;;;;;;;;;;;5085924;28;20045;-57
2023/03/07 04:05:16;;;;;;;;;;;4.00;99.90;;;;;;5086125;28;19958;-58
2023/03/07 04:07:42;;;;;;;;;;;3.60;99.90;;;;;;5058360;28;20009;-58
2023/03/07 04:10:08;;;;;;;;;;;;;;;;;;5093363;28;19959;-60
2023/03/07 04:12:34;;;;;;;;;;;;;;;;;;5089239;28;19920;-57
2023/03/07 04:15:00;;;;;;;;;;;;;;;;;;5087529;28;19981;-60
2023/03/07 04:17:25;;;;;;;;;;;;;;;;;;5086726;28;19924;-59
2023/03/07 04:19:51;;;;;;;;;;;;;;;;;;5088038;28;20015;-56
2023/03/07 04:22:17;;;;;;;;;;;;;;;;;;5091635;28;19981;-53
2023/03/07 04:24:44;;;;;;;;;;;;;;;;;;5071551;28;20286;-53
2023/03/07 04:27:09;;;;;;;;;;;3.50;99.90;;;;;;5088146;28;20014;-54
2023/03/07 04:29:35;;;;;;;;;;;;;;;;;;5085479;28;19960;-55
2023/03/07 04:32:01;;;;;;;;;;;4.10;99.90;;;;;;5082408;28;19931;-56
2023/03/07 04:34:27;;;;;;;;;;;;;;;;;;5089628;28;20365;-56
2023/03/07 04:36:52;;;;;;;;;;;;;;;;;;5093585;28;20491;-56
2023/03/07 04:39:18;;;;;;;;;;;3.80;99.90;;;;;;5074458;28;19920;-55
2023/03/07 04:41:44;;;;;;;;;;;3.90;99.90;;;;;;5093302;28;20409;-53
2023/03/07 04:44:09;;;;;;;;;;;;;;;;;;5072234;28;19920;-55
2023/03/07 04:46:35;;;;;;;;;;;;;;;;;;5092155;28;19920;-55
2023/03/07 04:49:01;;;;;;;;;;;;;;;;;;5092176;28;19959;-57
2023/03/07 04:51:27;;;;;;;;;;;;;;;;;;5074070;28;19924;-52
2023/03/07 04:53:53;;;;;;;;;;;;;;;;;;5089371;28;19927;-54
2023/03/07 04:56:19;;;;;;;;;;;;;;;;;;5074390;28;20300;-56
2023/03/07 04:58:45;;;;;;;;;;;2.90;99.90;;;;;;5087451;28;20297;-55
2023/03/07 05:01:11;;;;;;;;;;;;;;;;;;5085388;28;20309;-53
2023/03/07 05:03:37;;;;;;;;;;;;;;;;;;5088592;28;20393;-55
2023/03/07 05:06:03;;;;;;;;;;;;;;;;;;5086705;28;19924;-55
2023/03/07 05:08:29;;;;;;;;;;;;;;;;;;5085073;28;20370;-57
2023/03/07 05:10:54;;;;;;;;;;;;;;;;;;5092360;28;20002;-54
2023/03/07 05:13:20;;;;;;;;;;;;;;;;;;5055183;28;19920;-52
2023/03/07 05:15:46;;;;;;;;;;;;;;;;;;5066230;28;19923;-54
2023/03/07 05:18:12;;;;;;;;;;;3.90;99.90;;;;;;5082157;28;19921;-55
2023/03/07 05:20:38;;;;;;;;;;;;;;;;;;5083234;28;19920;-54
2023/03/07 05:23:04;;;;;;;;;;;;;;;;;;5077570;28;19966;-54
2023/03/07 05:25:30;;;;;;;;;;;;;;;;;;5087360;28;20408;-54
2023/03/07 05:27:56;;;;;;;;;;;;;;;;;;5083222;28;20335;-57
2023/03/07 05:30:22;;;;;;;;;;;;;;;;;;5085629;28;20381;-56
2023/03/07 05:32:48;;;;;;;;;;;;;;;;;;5081482;28;19920;-52
2023/03/07 05:35:15;;;;;;;;;;;;;;;;;;5069564;28;20301;-56
2023/03/07 05:37:40;;;;;;;;;;;;;;;;;;5087173;28;20117;-57
2023/03/07 05:40:09;;;;;;;;;;;;;;;;;;5091671;28;19978;-57
2023/03/07 05:42:35;;;;;;;;;;;4.00;99.90;;;;;;5090969;28;20004;-55
2023/03/07 05:45:01;;;;;;;;;;;;;;;;;;5062196;28;19924;-52
2023/03/07 05:47:29;;;;;;;;;;;3.60;99.90;;;;;;5072754;28;19920;-55
2023/03/07 05:49:55;;;;;;;;;;;;;;;;;;5075221;28;19927;-55
2023/03/07 05:52:20;;;;;;;;;;;3.30;99.90;;;;;;5072301;28;20378;-55
2023/03/07 05:54:46;;;;;;;;;;;;;;;;;;5072824;28;20023;-54
2023/03/07 05:57:12;;;;;;;;;;;3.40;99.90;;;;;;5067060;28;19959;-55
2023/03/07 05:59:37;;;;;;;;;;;;;;;;;;5061906;28;19920;-57
2023/03/07 06:02:03;;;;;;;;;;;;;;;;;;5065696;28;19921;-55
2023/03/07 06:04:29;;;;;;;;;;;;;;;;;;5081640;28;20461;-54
2023/03/07 06:06:56;;;;;;;;;;;;;;;;;;5082798;28;19943;-57
2023/03/07 06:09:24;;;;;;;;;;;;;;;;;;5081013;28;19920;-55
2023/03/07 06:11:50;;;;;;;;;;;;;;;;;;5061161;28;19924;-56
2023/03/07 06:14:16;;;;;;;;;;;;;;;;;;5087328;28;19924;-54
2023/03/07 06:16:42;;;;;;;;;;;;;;;;;;5063905;28;19928;-55
2023/03/07 06:19:07;;;;;;;;;;;2.40;1.00;;;;;;5081557;28;20011;-55
2023/03/07 06:21:33;;;;;;;;;;;;;;;;;;5062741;28;19924;-55
2023/03/07 06:23:59;;;;;;;;;;;2.20;1.00;;;;;;5086792;28;19920;-55
2023/03/07 06:26:25;;;;;;;;;;;;;;;;;;5084712;28;19928;-54
2023/03/07 06:28:51;;;;;;;;;;;;;;;;;;5087261;28;19919;-54
2023/03/07 06:31:17;;;;;;;;;;;2.20;1.00;;;;;;5088419;28;20424;-55
2023/03/07 06:33:43;;;;;;;;;;;2.50;1.00;;;;;;5079881;28;20282;-54
2023/03/07 06:36:12;;;;;;;;;;;2.60;4.60;;;;;;5076720;28;19920;-53
2023/03/07 06:38:38;;;;;;;;;;;2.40;2.20;;;;;;5090199;28;19924;-54
2023/03/07 06:41:04;;;;;;;;;;;;;;;;;;5086488;28;20319;-57
2023/03/07 06:43:30;;;;;;;;;;;;;;;;;;5076562;28;19952;-55
2023/03/07 06:45:55;;;;;;;;;;;2.50;13.90;;;;;;5062987;28;20532;-53
2023/03/07 06:48:21;;;;;;;;;;;2.60;2.80;;;;;;5078208;28;19971;-55
2023/03/07 06:50:47;;;;;;;;;;;;;;;;;;5053362;28;19924;-57
2023/03/07 06:53:13;;;;;;;;;;;;;;;;;;5085254;28;20003;-57
2023/03/07 06:55:38;;;;;;;;;;;;;;;;;;5086894;28;19982;-60
2023/03/07 06:58:04;;;;;;;;;;;;;;;;;;5089639;28;19920;-58
2023/03/07 07:00:30;;;;;;;;;;;;;;;;;;5070286;28;20384;-56
2023/03/07 07:02:56;;;;;;;;;;;2.50;1.00;;;;;;5090399;28;19924;-56
2023/03/07 07:05:21;;;;;;;;;;;2.30;4.50;;;;;;5090043;28;20053;-56
2023/03/07 07:07:47;;;;;;;;;;;;;;;;;;5081462;28;19920;-58
2023/03/07 07:10:13;;;;;;;;;;;;;;;;;;5088488;28;19965;-54
2023/03/07 07:12:39;;;;;;;;;;;2.30;1.00;;;;;;5089413;28;19999;-56
2023/03/07 07:15:05;;;;;;;;;;;3.00;1.90;;;;;;5084212;28;19932;-56
2023/03/07 07:17:31;;;;;;;;;;;2.60;1.00;;;;;;5076107;28;19960;-58
2023/03/07 07:19:56;;;;;;;;;;;;;;;;;;5071666;28;20395;-56
2023/03/07 07:22:22;;;;;;;;;;;;;;;;;;5089321;28;19994;-56
2023/03/07 07:24:48;;;;;;;;;;;;;;;;;;5088249;28;19973;-57
2023/03/07 07:27:14;;;;;;;;;;;;;;;;;;5088803;28;19924;-56
2023/03/07 07:29:40;;;;;;;;;;;2.50;1.00;;;;;;5088455;28;20379;-55
2023/03/07 07:32:06;;;;;;;;;;;;;;;;;;5069288;28;19932;-53
2023/03/07 07:34:31;;;;;;;;;;;2.70;9.90;;;;;;5075994;28;19924;-52
2023/03/07 07:36:57;;;;;;;;;;;;;;;;;;5097567;28;20014;-54
2023/03/07 07:39:23;;;;;;;;;;;;;;;;;;5074761;28;19924;-59
2023/03/07 07:41:49;;;;;;;;;;;;;;;;;;5079573;28;19944;-54
2023/03/07 07:44:15;;;;;;;;;;;2.70;1.00;;;;;;5092619;28;19920;-55
2023/03/07 07:46:40;;;;;;;;;;;3.40;1.00;;;;;;5092647;28;20548;-55
2023/03/07 07:49:06;;;;;;;;;;;;;;;;;;5090779;28;19931;-56
2023/03/07 07:51:32;;;;;;;;;;;;;;;;;;5074434;28;19988;-54
2023/03/07 07:53:58;;;;;;;;;;;;;;;;;;5090745;28;19928;-57
2023/03/07 07:56:24;;;;;;;;;;;;;;;;;;5091346;28;19920;-58
2023/03/07 07:58:50;;;;;;;;;;;;;;;;;;5092285;28;20015;-54
2023/03/07 08:01:16;;;;;;;;;;;;;;;;;;5092791;28;19924;-58
2023/03/07 08:03:42;;;;;;;;;;;3.50;1.00;;;;;;5090504;28;19920;-54
2023/03/07 08:06:07;;;;;;;;;;;3.70;1.00;;;;;;5098357;28;19943;-55
2023/03/07 08:08:33;;;;;;;;;;;;;;;;;;5079250;28;20004;-55
2023/03/07 08:10:59;;;;;;;;;;;;;;;;;;5090828;28;19924;-56
2023/03/07 08:13:25;;;;;;;;;;;;;;;;;;5092714;28;19926;-57
2023/03/07 08:15:51;;;;;;;;;;;;;;;;;;5086798;28;19920;-55
2023/03/07 08:18:17;;;;;;;;;;;;;;;;;;5166405;22;19928;-71
2023/03/07 08:20:43;;;;;;;;;;;3.80;1.00;;;;;;5086027;28;19926;-72
2023/03/07 08:23:08;;;;;;;;;;;2.70;1.00;;;;;;5088446;28;20377;-71
2023/03/07 08:25:34;;;;;;;;;;;;;;;;;;5067054;28;19920;-69
2023/03/07 08:28:02;;;;;;;;;;;;;;;;;;5090257;28;19965;-69
2023/03/07 08:30:28;;;;;;;;;;;;;;;;;;5073756;28;19920;-69
2023/03/07 08:32:54;;;;;;;;;;;;;;;;;;5086650;28;19965;-69
2023/03/07 08:35:20;;;;;;;;;;;3.20;1.00;;;;;;5091116;28;19927;-71
2023/03/07 08:37:47;;;;;;;;;;;2.70;1.00;;;;;;5086619;28;19924;-70
2023/03/07 08:40:14;;;;;;;;;;;;;;;;;;5085448;28;20293;-69
2023/03/07 08:42:40;;;;;;;;;;;;;;;;;;5079744;28;19927;-71
2023/03/07 08:45:06;;;;;;;;;;;3.10;1.00;;;;;;5074014;28;19924;-70
2023/03/07 08:47:32;;;;;;;;;;;;;;;;;;5070945;28;19930;-69
2023/03/07 08:49:58;;;;;;;;;;;;;;;;;;5101306;22;19925;-61
2023/03/07 08:52:24;;;;;;;;;;;;;;;;;;5069246;28;19953;-61
2023/03/07 08:54:49;;;;;;;;;;;;;;;;;;5065837;28;19966;-60
2023/03/07 08:57:15;;;;;;;;;;;;;;;;;;5072866;28;19920;-60
2023/03/07 08:59:41;;;;;;;;;;;3.10;1.00;;;;;;5070425;28;19920;-59
2023/03/07 09:02:07;;;;;;;;;;;;;;;;;;5071843;28;19924;-59
2023/03/07 09:04:33;;;;;;;;;;;;;;;;;;5071038;28;19927;-59
2023/03/07 09:06:59;;;;;;;;;;;;;;;;;;5071338;28;19931;-60
2023/03/07 09:09:25;;;;;;;;;;;;;;;;;;5071184;28;19930;-59
2023/03/07 09:11:50;;;;;;;;;;;;;;;;;;5070371;28;19925;-60
2023/03/07 09:14:16;;;;;;;;;;;;;;;;;;5071984;28;19920;-59
2023/03/07 09:16:42;;;;;;;;;;;2.70;1.00;;;;;;5070775;28;20009;-59
2023/03/07 09:19:07;;;;;;;;;;;2.90;1.00;;;;;;5066226;28;19920;-58
2023/03/07 09:21:33;;;;;;;;;;;;;;;;;;5070533;28;19928;-60
2023/03/07 09:23:59;;;;;;;;;;;;;;;;;;5069746;28;19928;-59
2023/03/07 09:26:25;;;;;;;;;;;;;;;;;;5069664;28;19928;-59
2023/03/07 09:28:51;;;;;;;;;;;4.10;99.90;;;;;;5070348;28;19929;-59
2023/03/07 09:31:16;;;;;;;;;;;3.60;99.90;;;;;;5198590;22;19975;-60
2023/03/07 09:33:42;;;;;;;;;;;;;;;;;;5048439;28;19928;-59
2023/03/07 09:36:08;;;;;;;;;;;;;;;;;;5067732;28;19927;-59
2023/03/07 09:38:34;;;;;;;;;;;;;;;;;;5085153;28;19924;-58
2023/03/07 09:41:06;;;;;;;;;;;3.80;99.90;;;;;;5066337;28;19928;-59
2023/03/07 09:43:31;;;;;;;;;;;;;;;;;;5070558;28;20412;-59
2023/03/07 09:46:09;;;;;;;;;;;3.90;99.90;;;;;;5070407;28;19920;-59
2023/03/07 09:48:35;;;;;;;;;;;;;;;;;;5069858;28;19924;-58
2023/03/07 09:51:01;;;;;;;;;;;;;;;;;;5070285;28;19924;-59
2023/03/07 09:53:27;;;;;;;;;;;;;;;;;;5069369;28;20073;-59
2023/03/07 09:55:53;;;;;;;;;;;3.90;99.90;;;;;;5068298;28;19974;-58
2023/03/07 09:58:20;;;;;;;;;;;3.70;99.90;;;;;;5068283;28;19928;-58
2023/03/07 10:00:46;;;;;;;;;;;;;;;;;;5068302;28;19966;-59
2023/03/07 10:03:12;;;;;;;;;;;;;;;;;;5086227;22;19978;-66
2023/03/07 10:05:38;;;;;;;;;;;;;;;;;;5090088;28;19927;-66
2023/03/07 10:08:04;;;;;;;;;;;3.50;99.90;;;;;;5082914;28;19920;-67
2023/03/07 10:10:30;;;;;;;;;;;;;;;;;;5084668;28;20493;-67
2023/03/07 10:12:55;;;;;;;;;;;3.40;99.90;;;;;;5084255;28;19967;-67
2023/03/07 10:15:21;;;;;;;;;;;;;;;;;;5079090;28;19920;-66
2023/03/07 10:17:47;;;;;;;;;;;;;;;;;;5085795;28;19928;-67
2023/03/07 10:20:13;;;;;;;;;;;;;;;;;;5083159;28;19920;-67
2023/03/07 10:22:39;;;;;;;;;;;;;;;;;;5087935;28;20016;-67
2023/03/07 10:25:05;;;;;;;;;;;;;;;;;;5088917;28;20011;-68
2023/03/07 10:27:31;;;;;;;;;;;;;;;;;;5088240;28;20414;-66
2023/03/07 10:29:58;;;;;;;;;;;3.80;99.90;;;;;;5087636;28;21199;-66
2023/03/07 10:32:33;;;;;;;;;;;3.20;99.90;;;;;;5080983;28;19928;-66
2023/03/07 10:35:01;;;;;;;;;;;3.50;99.90;;;;;;5088494;28;20014;-67
2023/03/07 10:37:49;;;;;;;;;;;3.70;99.90;;;;;;5064296;28;19924;-66
2023/03/07 10:40:22;;;;;;;;;;;3.70;99.90;;;;;;5077856;28;20416;-67
2023/03/07 10:42:47;;;;;;;;;;;3.80;99.90;;;;;;5087809;28;19920;-66
2023/03/07 10:45:13;;;;;;;;;;;4.10;99.90;;;;;;5088073;28;19920;-65
2023/03/07 10:47:39;;;;;;;;;;;4.60;99.90;;;;;;5082809;28;19920;-66
2023/03/07 10:50:05;;;;;;;;;;;;;;;;;;5087279;28;19931;-65
2023/03/07 10:52:31;;;;;;;;;;;;;;;;;;5087475;28;20308;-65
2023/03/07 10:54:57;;;;;;;;;;;;;;;;;;5089071;28;20381;-65
2023/03/07 10:57:23;;;;;;;;;;;;;;;;;;5088062;28;19920;-66
2023/03/07 10:59:51;;;;;;;;;;;4.70;99.90;;;;;;5070838;28;19920;-64
2023/03/07 11:02:17;;;;;;;;;;;;;;;;;;5088653;28;19927;-65
2023/03/07 11:04:43;;;;;;;;;;;;;;;;;;5087415;28;19920;-65
2023/03/07 11:07:09;;;;;;;;;;;;;;;;;;5087435;28;19920;-65
2023/03/07 11:09:44;;;;;;;;;;;4.80;99.90;;;;;;5087881;28;19924;-64
2023/03/07 11:12:10;;;;;;;;;;;;;;;;;;5074991;28;19931;-65
2023/03/07 11:14:36;;;;;;;;;;;;;;;;;;5088303;28;19920;-67
2023/03/07 11:17:02;;;;;;;;;;;;;;;;;;5081174;28;20476;-66
2023/03/07 11:19:33;;;;;;;;;;;6.40;99.90;;;;;;5087218;28;20407;-66
2023/03/07 11:21:59;;;;;;;;;;;;;;;;;;5087546;28;19920;-66
2023/03/07 11:24:25;;;;;;;;;;;;;;;;;;5087400;28;19928;-65
2023/03/07 11:26:51;;;;;;;;;;;;;;;;;;5077393;28;19927;-68
2023/03/07 11:29:17;;;;;;;;;;;;;;;;;;5080385;28;19920;-68
2023/03/07 11:31:43;;;;;;;;;;;;;;;;;;5079313;28;19925;-68
2023/03/07 11:34:09;;;;;;;;;;;;;;;;;;5076814;28;19927;-67
2023/03/07 11:36:35;;;;;;;;;;;5.90;99.90;;;;;;5080401;28;20308;-67
2023/03/07 11:39:06;;;;;;;;;;;5.40;99.90;;;;;;5080169;28;21042;-68
2023/03/07 11:41:37;;;;;;;;;;;6.20;99.90;;;;;;5088927;28;20419;-67
2023/03/07 11:44:14;;;;;;;;;;;5.40;99.90;;;;;;5078458;28;19924;-67
2023/03/07 11:46:40;;;;;;;;;;;;;;;;;;5079972;28;20290;-67
2023/03/07 11:49:06;;;;;;;;;;;;;;;;;;5086805;28;19928;-67
2023/03/07 11:51:32;;;;;;;;;;;;;;;;;;5087240;28;19924;-67
2023/03/07 11:53:58;;;;;;;;;;;;;;;;;;5080113;28;19926;-67
2023/03/07 11:56:31;;;;;;;;;;;6.00;99.90;;;;;;5066299;28;20301;-67
2023/03/07 11:58:57;;;;;;;;;;;;;;;;;;5079418;28;20372;-67
2023/03/07 12:01:23;;;;;;;;;;;;;;;;;;5081032;28;20424;-67
2023/03/07 12:03:48;;;;;;;;;;;7.70;99.90;;;;;;5078608;28;20011;-68
2023/03/07 12:06:14;;;;;;;;;;;8.20;99.90;;;;;;5082877;28;19971;-67
2023/03/07 12:08:40;;;;;;;;;;;;;;;;;;5084841;28;20295;-67
2023/03/07 12:11:05;;;;;;;;;;;;;;;;;;5086502;28;19933;-67
2023/03/07 12:13:31;;;;;;;;;;;;;;;;;;5076487;28;19984;-67
2023/03/07 12:15:57;;;;;;;;;;;6.80;99.90;;;;;;5087208;28;20344;-68
2023/03/07 12:18:23;;;;;;;;;;;;;;;;;;5053178;28;19942;-61
2023/03/07 12:21:09;;;;;;;;;;;6.70;99.90;;;;;;5079047;28;20388;-61
2023/03/07 12:23:37;;;;;;;;;;;;;;;;;;5079236;28;19925;-62
2023/03/07 12:26:11;;;;;;;;;;;7.10;99.90;;;;;;5092085;28;19958;-61
2023/03/07 12:28:37;;;;;;;;;;;;;;;;;;5090643;28;19928;-61
2023/03/07 12:31:03;;;;;;;;;;;;;;;;;;5084025;28;19931;-62
2023/03/07 12:33:29;;;;;;;;;;;;;;;;;;5092011;28;19920;-61
2023/03/07 12:35:55;;;;;;;;;;;;;;;;;;5087406;28;20626;-61
2023/03/07 12:38:33;;;;;;;;;;;7.90;99.90;;;;;;5091548;28;19927;-61
2023/03/07 12:41:02;;;;;;;;;;;6.40;99.90;;;;;;5088809;28;19927;-61
2023/03/07 12:43:28;;;;;;;;;;;;;;;;;;5091869;28;19920;-61
2023/03/07 12:46:29;;;;;;;;;;;5.40;99.90;;;;;;5088680;28;19974;-60
2023/03/07 12:48:55;;;;;;;;;;;;;;;;;;5023295;28;19952;-60
2023/03/07 12:51:31;;;;;;;;;;;5.40;99.90;;;;;;5077660;28;19970;-60
2023/03/07 12:53:57;;;;;;;;;;;;;;;;;;5082657;28;20460;-61
2023/03/07 12:56:23;;;;;;;;;;;;;;;;;;5088876;28;19924;-60
2023/03/07 12:58:49;;;;;;;;;;;;;;;;;;5089489;28;20385;-59
2023/03/07 13:01:14;;;;;;;;;;;;;;;;;;5091251;28;19924;-61
2023/03/07 13:03:41;;;;;;;;;;;;;;;;;;5087373;28;19920;-60
2023/03/07 13:06:06;;;;;;;;;;;;;;;;;;5089707;28;19928;-60
2023/03/07 13:08:33;;;;;;;;;;;11.50;99.90;;;;;;5091179;28;19927;-59
2023/03/07 13:10:59;;;;;;;;;;;;;;;;;;5089784;28;19988;-60
2023/03/07 13:13:25;;;;;;;;;;;;;;;;;;5084974;28;20003;-58
2023/03/07 13:16:01;;;;;;;;;;;14.70;99.90;;;;;;5084954;28;20016;-59
2023/03/07 13:18:28;;;;;;;;;;;16.10;99.90;;;;;;5091163;28;19920;-60
2023/03/07 13:20:54;;;;;;;;;;;;;;;;;;5087141;28;19928;-60
2023/03/07 13:23:24;;;;;;;;;;;14.90;99.90;;;;;;5083113;28;19920;-60
2023/03/07 13:25:50;;;;;;;;;;;;;;;;;;5079728;28;20402;-60
2023/03/07 13:28:16;;;;;;;;;;;;;;;;;;5084257;28;19920;-60
2023/03/07 13:30:42;;;;;;;;;;;;;;;;;;5094960;28;19928;-60
2023/03/07 13:33:24;;;;;;;;;;;11.50;99.90;;;;;;5088498;28;19927;-60
2023/03/07 13:35:54;;;;;;;;;;;11.60;99.90;;;;;;5089863;28;19927;-59
2023/03/07 13:38:23;;;;;;;;;;;11.80;99.90;;;;;;5080456;28;19978;-60
2023/03/07 13:40:49;;;;;;;;;;;;;;;;;;5089216;28;19920;-59
2023/03/07 13:43:18;;;;;;;;;;;11.70;99.90;;;;;;5079313;28;19932;-60
2023/03/07 13:45:43;;;;;;;;;;;;;;;;;;5088749;28;19920;-60
2023/03/07 13:48:09;;;;;;;;;;;;;;;;;;5088500;28;20385;-60
2023/03/07 13:50:35;;;;;;;;;;;11.00;99.90;;;;;;5090898;28;19920;-60
2023/03/07 13:53:01;;;;;;;;;;;;;;;;;;5083658;28;19920;-61
2023/03/07 13:55:27;;;;;;;;;;;10.40;99.90;;;;;;5089086;28;20334;-61
2023/03/07 13:57:54;;;;;;;;;;;11.40;99.90;;;;;;5086817;28;19994;-61
2023/03/07 14:00:24;;;;;;;;;;;10.00;99.90;;;;;;5089388;28;20393;-61
2023/03/07 14:02:50;;;;;;;;;;;;;;;;;;5082242;28;19920;-61
2023/03/07 14:05:15;;;;;;;;;;;;;;;;;;5087039;28;19920;-61
2023/03/07 14:07:41;;;;;;;;;;;8.40;99.90;;;;;;5085003;28;20296;-61
2023/03/07 14:10:07;;;;;;;;;;;;;;;;;;5085561;28;19932;-61
2023/03/07 14:12:33;;;;;;;;;;;;;;;;;;5090534;28;20397;-60
2023/03/07 14:14:59;;;;;;;;;;;;;;;;;;5090680;28;19920;-61
2023/03/07 14:17:25;;;;;;;;;;;;;;;;;;5080497;28;19928;-61
2023/03/07 14:19:54;;;;;;;;;;;10.40;99.90;;;;;;5084396;28;19920;-60
2023/03/07 14:22:20;;;;;;;;;;;;;;;;;;5077132;28;19927;-61
2023/03/07 14:24:46;;;;;;;;;;;;;;;;;;5084297;28;20301;-60
2023/03/07 14:27:12;;;;;;;;;;;;;;;;;;5087217;28;20088;-61
2023/03/07 14:29:45;;;;;;;;;;;9.20;99.90;;;;;;5088839;28;19965;-70
2023/03/07 14:32:11;;;;;;;;;;;;;;;;;;5070584;28;19927;-68
2023/03/07 14:34:45;;;;;;;;;;;10.10;99.90;;;;;;5087050;28;19989;-69
2023/03/07 14:37:11;;;;;;;;;;;;;;;;;;5062897;28;20293;-69
2023/03/07 14:39:37;;;;;;;;;;;;;;;;;;5071521;28;19931;-70
2023/03/07 14:42:03;;;;;;;;;;;;;;;;;;5061670;28;19920;-70
2023/03/07 14:44:29;;;;;;;;;;;;;;;;;;5083183;28;20504;-69
2023/03/07 14:47:14;;;;;;;;;;;12.80;99.90;;;;;;5079747;28;19924;-70
2023/03/07 14:49:40;;;;;;;;;;;;;;;;;;5083279;28;19920;-70
2023/03/07 14:52:05;;;;;;;;;;;;;;;;;;5085191;28;19943;-70
2023/03/07 14:54:32;;;;;;;;;;;14.50;99.90;;;;;;5088503;28;20324;-71
2023/03/07 14:56:59;;;;;;;;;;;14.50;99.90;;;;;;5079818;28;20338;-71
2023/03/07 14:59:24;;;;;;;;;;;16.00;99.90;;;;;;5089120;28;19932;-71
2023/03/07 15:01:50;;;;;;;;;;;15.90;99.90;;;;;;5071438;28;19973;-72
2023/03/07 15:04:19;;;;;;;;;;;16.80;99.90;;;;;;5082433;28;19921;-71
2023/03/07 15:06:44;;;;;;;;;;;18.30;99.90;;;;;;5079884;28;19960;-74
2023/03/07 15:09:10;;;;;;;;;;;18.90;99.90;;;;;;5069122;28;20419;-72
2023/03/07 15:11:58;;;;;;;;;;;20.50;99.90;;;;;;5087679;28;20022;-72
2023/03/07 15:14:44;;;;;;;;;;;21.00;99.90;;;;;;5072115;28;19927;-71
2023/03/07 15:17:22;;;;;;;;;;;19.80;99.90;;;;;;5063491;28;19924;-73
2023/03/07 15:19:48;;;;;;;;;;;;;;;;;;5068457;28;19920;-72
2023/03/07 15:22:38;;;;;;;;;;;14.60;99.90;;;;;;5061046;28;20286;-71
2023/03/07 15:25:05;;;;;;;;;;;15.60;99.90;;;;;;5081300;28;20384;-71
2023/03/07 15:27:31;;;;;;;;;;;13.00;99.90;;;;;;5080381;28;19931;-71
2023/03/07 15:29:57;;;;;;;;;;;11.60;99.90;;;;;;5087880;28;19920;-71
2023/03/07 15:32:23;;;;;;;;;;;;;;;;;;5070972;28;19971;-71
2023/03/07 15:34:57;;;;;;;;;;;9.70;99.90;;;;;;5088118;28;19920;-71
2023/03/07 15:37:23;;;;;;;;;;;;;;;;;;5078944;28;20014;-70
2023/03/07 15:39:49;;;;;;;;;;;;;;;;;;5087512;28;19958;-71
2023/03/07 15:42:19;;;;;;;;;;;6.80;99.90;;;;;;5085885;28;20023;-70
2023/03/07 15:44:45;;;;;;;;;;;;;;;;;;5087243;28;19932;-71
2023/03/07 15:47:11;;;;;;;;;;;;;;;;;;5070198;28;19926;-71
2023/03/07 15:49:37;;;;;;;;;;;;;;;;;;5087669;28;20014;-70